sensor_id;sensor_type;location;lat;lon;timestamp;temperature;humidity
75296;DHT22;64623;44.738;37.804;2023-05-02T00:00:40;21.79;103.17
75296;DHT22;64623;44.738;37.804;2023-05-02T00:01:43;21.81;103.70
75296;DHT22;64623;44.738;37.804;2023-05-02T00:02:46;21.80;103.22
75296;DHT22;64623;44.738;37.804;2023-05-02T00:03:51;21.81;103.15
75296;DHT22;64623;44.738;37.804;2023-05-02T00:04:54;21.80;102.83
75296;DHT22;64623;44.738;37.804;2023-05-02T00:05:58;21.80;103.57
75296;DHT22;64623;44.738;37.804;2023-05-02T00:07:01;21.80;102.80
75296;DHT22;64623;44.738;37.804;2023-05-02T00:08:04;21.80;103.04
75296;DHT22;64623;44.738;37.804;2023-05-02T00:09:12;21.79;103.25
75296;DHT22;64623;44.738;37.804;2023-05-02T00:10:16;21.79;103.33
75296;DHT22;64623;44.738;37.804;2023-05-02T00:11:19;21.79;102.81
75296;DHT22;64623;44.738;37.804;2023-05-02T00:12:22;21.79;103.21
75296;DHT22;64623;44.738;37.804;2023-05-02T00:13:25;21.80;103.30
75296;DHT22;64623;44.738;37.804;2023-05-02T00:14:28;21.80;103.13
75296;DHT22;64623;44.738;37.804;2023-05-02T00:15:31;21.80;102.90
75296;DHT22;64623;44.738;37.804;2023-05-02T00:16:34;21.79;103.12
75296;DHT22;64623;44.738;37.804;2023-05-02T00:17:39;21.80;102.80
75296;DHT22;64623;44.738;37.804;2023-05-02T00:18:45;21.80;102.92
75296;DHT22;64623;44.738;37.804;2023-05-02T00:19:48;21.79;103.46
75296;DHT22;64623;44.738;37.804;2023-05-02T00:20:51;21.79;103.52
75296;DHT22;64623;44.738;37.804;2023-05-02T00:21:54;21.79;103.18
75296;DHT22;64623;44.738;37.804;2023-05-02T00:22:57;21.79;103.34
75296;DHT22;64623;44.738;37.804;2023-05-02T00:24:00;21.78;103.22
75296;DHT22;64623;44.738;37.804;2023-05-02T00:25:03;21.78;102.98
75296;DHT22;64623;44.738;37.804;2023-05-02T00:26:10;21.78;103.31
75296;DHT22;64623;44.738;37.804;2023-05-02T00:27:16;21.78;103.40
75296;DHT22;64623;44.738;37.804;2023-05-02T00:28:20;21.77;103.51
75296;DHT22;64623;44.738;37.804;2023-05-02T00:29:23;21.78;103.72
75296;DHT22;64623;44.738;37.804;2023-05-02T00:30:27;21.77;103.79
75296;DHT22;64623;44.738;37.804;2023-05-02T00:31:30;21.77;103.37
75296;DHT22;64623;44.738;37.804;2023-05-02T00:32:33;21.77;103.59
75296;DHT22;64623;44.738;37.804;2023-05-02T00:33:36;21.78;103.50
75296;DHT22;64623;44.738;37.804;2023-05-02T00:34:39;21.78;103.58
75296;DHT22;64623;44.738;37.804;2023-05-02T00:35:42;21.78;103.38
75296;DHT22;64623;44.738;37.804;2023-05-02T00:36:47;21.78;103.13
75296;DHT22;64623;44.738;37.804;2023-05-02T00:37:49;21.78;103.25
75296;DHT22;64623;44.738;37.804;2023-05-02T00:38:53;21.77;104.07
75296;DHT22;64623;44.738;37.804;2023-05-02T00:39:55;21.77;103.28
75296;DHT22;64623;44.738;37.804;2023-05-02T00:40:59;21.77;103.00
75296;DHT22;64623;44.738;37.804;2023-05-02T00:42:02;21.77;103.50
75296;DHT22;64623;44.738;37.804;2023-05-02T00:43:04;21.77;103.63
75296;DHT22;64623;44.738;37.804;2023-05-02T00:44:07;21.77;103.66
75296;DHT22;64623;44.738;37.804;2023-05-02T00:45:10;21.77;103.60
75296;DHT22;64623;44.738;37.804;2023-05-02T00:46:13;21.77;103.18
75296;DHT22;64623;44.738;37.804;2023-05-02T00:47:16;21.76;103.48
75296;DHT22;64623;44.738;37.804;2023-05-02T00:48:20;21.77;103.27
75296;DHT22;64623;44.738;37.804;2023-05-02T00:49:23;21.78;103.21
75296;DHT22;64623;44.738;37.804;2023-05-02T00:50:28;21.77;103.18
75296;DHT22;64623;44.738;37.804;2023-05-02T00:51:34;21.77;102.90
75296;DHT22;64623;44.738;37.804;2023-05-02T00:52:37;21.78;102.82
75296;DHT22;64623;44.738;37.804;2023-05-02T00:53:40;21.78;103.11
75296;DHT22;64623;44.738;37.804;2023-05-02T00:54:43;21.78;104.24
75296;DHT22;64623;44.738;37.804;2023-05-02T00:55:46;21.77;103.57
75296;DHT22;64623;44.738;37.804;2023-05-02T00:56:51;21.77;103.52
75296;DHT22;64623;44.738;37.804;2023-05-02T00:57:54;21.75;103.28
75296;DHT22;64623;44.738;37.804;2023-05-02T00:58:57;21.76;103.20
75296;DHT22;64623;44.738;37.804;2023-05-02T01:00:01;21.76;103.10
75296;DHT22;64623;44.738;37.804;2023-05-02T01:02:57;21.76;103.10
75296;DHT22;64623;44.738;37.804;2023-05-02T01:08:39;21.75;103.15
75296;DHT22;64623;44.738;37.804;2023-05-02T01:11:46;21.76;103.65
75296;DHT22;64623;44.738;37.804;2023-05-02T01:12:46;21.73;103.38
75296;DHT22;64623;44.738;37.804;2023-05-02T01:13:52;21.74;103.23
75296;DHT22;64623;44.738;37.804;2023-05-02T01:14:57;21.74;103.23
75296;DHT22;64623;44.738;37.804;2023-05-02T01:16:02;21.74;103.15
75296;DHT22;64623;44.738;37.804;2023-05-02T01:17:10;21.74;103.46
75296;DHT22;64623;44.738;37.804;2023-05-02T01:18:15;21.74;103.54
75296;DHT22;64623;44.738;37.804;2023-05-02T01:19:31;21.75;103.83
75296;DHT22;64623;44.738;37.804;2023-05-02T01:20:39;21.74;103.63
75296;DHT22;64623;44.738;37.804;2023-05-02T01:21:44;21.74;103.79
75296;DHT22;64623;44.738;37.804;2023-05-02T01:22:48;21.75;103.54
75296;DHT22;64623;44.738;37.804;2023-05-02T01:24:13;21.74;103.21
75296;DHT22;64623;44.738;37.804;2023-05-02T01:29:57;21.72;103.78
75296;DHT22;64623;44.738;37.804;2023-05-02T01:31:03;21.72;103.47
75296;DHT22;64623;44.738;37.804;2023-05-02T01:32:07;21.72;103.55
75296;DHT22;64623;44.738;37.804;2023-05-02T01:33:14;21.70;103.72
75296;DHT22;64623;44.738;37.804;2023-05-02T01:34:20;21.70;103.92
75296;DHT22;64623;44.738;37.804;2023-05-02T01:35:24;21.73;103.42
75296;DHT22;64623;44.738;37.804;2023-05-02T01:36:30;21.73;103.43
75296;DHT22;64623;44.738;37.804;2023-05-02T01:37:36;21.72;103.14
75296;DHT22;64623;44.738;37.804;2023-05-02T01:38:41;21.72;103.71
75296;DHT22;64623;44.738;37.804;2023-05-02T01:39:45;21.72;103.07
75296;DHT22;64623;44.738;37.804;2023-05-02T01:40:50;21.72;103.31
75296;DHT22;64623;44.738;37.804;2023-05-02T01:41:55;21.70;103.00
75296;DHT22;64623;44.738;37.804;2023-05-02T01:43:01;21.72;103.66
75296;DHT22;64623;44.738;37.804;2023-05-02T01:44:07;21.70;103.49
75296;DHT22;64623;44.738;37.804;2023-05-02T01:45:12;21.72;103.54
75296;DHT22;64623;44.738;37.804;2023-05-02T01:46:16;21.72;103.39
75296;DHT22;64623;44.738;37.804;2023-05-02T01:47:21;21.72;103.21
75296;DHT22;64623;44.738;37.804;2023-05-02T01:48:26;21.72;103.31
75296;DHT22;64623;44.738;37.804;2023-05-02T01:49:32;21.72;103.38
75296;DHT22;64623;44.738;37.804;2023-05-02T01:50:40;21.72;103.01
75296;DHT22;64623;44.738;37.804;2023-05-02T01:51:49;21.73;103.45
75296;DHT22;64623;44.738;37.804;2023-05-02T01:52:53;21.73;103.63
75296;DHT22;64623;44.738;37.804;2023-05-02T01:54:04;21.73;103.05
75296;DHT22;64623;44.738;37.804;2023-05-02T01:55:12;21.73;103.36
75296;DHT22;64623;44.738;37.804;2023-05-02T01:56:17;21.72;103.29
75296;DHT22;64623;44.738;37.804;2023-05-02T01:57:21;21.73;103.02
75296;DHT22;64623;44.738;37.804;2023-05-02T01:58:26;21.72;103.10
75296;DHT22;64623;44.738;37.804;2023-05-02T01:59:32;21.72;102.75
75296;DHT22;64623;44.738;37.804;2023-05-02T02:00:36;21.72;103.31
75296;DHT22;64623;44.738;37.804;2023-05-02T02:01:41;21.72;103.70
75296;DHT22;64623;44.738;37.804;2023-05-02T02:02:46;21.72;103.28
75296;DHT22;64623;44.738;37.804;2023-05-02T02:03:51;21.72;103.31
75296;DHT22;64623;44.738;37.804;2023-05-02T02:04:56;21.72;102.99
75296;DHT22;64623;44.738;37.804;2023-05-02T02:06:00;21.73;103.34
75296;DHT22;64623;44.738;37.804;2023-05-02T02:07:08;21.73;103.13
75296;DHT22;64623;44.738;37.804;2023-05-02T02:08:12;21.73;103.03
75296;DHT22;64623;44.738;37.804;2023-05-02T02:09:15;21.73;103.41
75296;DHT22;64623;44.738;37.804;2023-05-02T02:10:18;21.72;103.18
75296;DHT22;64623;44.738;37.804;2023-05-02T02:11:34;21.72;103.79
75296;DHT22;64623;44.738;37.804;2023-05-02T02:12:41;21.70;103.47
75296;DHT22;64623;44.738;37.804;2023-05-02T02:13:48;21.72;102.98
75296;DHT22;64623;44.738;37.804;2023-05-02T02:14:58;21.70;103.72
75296;DHT22;64623;44.738;37.804;2023-05-02T02:16:03;21.73;103.27
75296;DHT22;64623;44.738;37.804;2023-05-02T02:17:37;21.73;103.71
75296;DHT22;64623;44.738;37.804;2023-05-02T02:18:43;21.73;103.10
75296;DHT22;64623;44.738;37.804;2023-05-02T02:19:52;21.72;102.86
75296;DHT22;64623;44.738;37.804;2023-05-02T02:20:58;21.73;102.58
75296;DHT22;64623;44.738;37.804;2023-05-02T02:22:02;21.73;102.90
75296;DHT22;64623;44.738;37.804;2023-05-02T02:23:07;21.73;102.37
75296;DHT22;64623;44.738;37.804;2023-05-02T02:24:11;21.72;102.44
75296;DHT22;64623;44.738;37.804;2023-05-02T02:25:16;21.72;102.33
75296;DHT22;64623;44.738;37.804;2023-05-02T02:26:20;21.73;102.27
75296;DHT22;64623;44.738;37.804;2023-05-02T02:27:24;21.73;102.43
75296;DHT22;64623;44.738;37.804;2023-05-02T02:28:27;21.72;102.23
75296;DHT22;64623;44.738;37.804;2023-05-02T02:29:30;21.73;102.38
75296;DHT22;64623;44.738;37.804;2023-05-02T02:30:33;21.73;102.31
75296;DHT22;64623;44.738;37.804;2023-05-02T02:31:36;21.73;102.27
75296;DHT22;64623;44.738;37.804;2023-05-02T02:32:41;21.70;102.38
75296;DHT22;64623;44.738;37.804;2023-05-02T02:33:44;21.72;102.36
75296;DHT22;64623;44.738;37.804;2023-05-02T02:34:47;21.73;102.39
75296;DHT22;64623;44.738;37.804;2023-05-02T02:36:01;21.72;102.42
75296;DHT22;64623;44.738;37.804;2023-05-02T02:37:18;21.73;102.44
75296;DHT22;64623;44.738;37.804;2023-05-02T02:38:55;21.70;102.30
75296;DHT22;64623;44.738;37.804;2023-05-02T02:40:33;21.70;102.25
75296;DHT22;64623;44.738;37.804;2023-05-02T02:44:24;21.70;102.36
75296;DHT22;64623;44.738;37.804;2023-05-02T02:45:54;21.72;102.39
75296;DHT22;64623;44.738;37.804;2023-05-02T02:49:51;21.69;102.32
75296;DHT22;64623;44.738;37.804;2023-05-02T02:52:19;21.69;102.31
75296;DHT22;64623;44.738;37.804;2023-05-02T02:53:46;21.72;102.29
75296;DHT22;64623;44.738;37.804;2023-05-02T02:54:57;21.69;102.36
75296;DHT22;64623;44.738;37.804;2023-05-02T02:56:15;21.69;102.44
75296;DHT22;64623;44.738;37.804;2023-05-02T02:59:02;21.69;102.51
75296;DHT22;64623;44.738;37.804;2023-05-02T03:00:19;21.70;103.11
75296;DHT22;64623;44.738;37.804;2023-05-02T03:01:26;21.70;103.03
75296;DHT22;64623;44.738;37.804;2023-05-02T03:02:31;21.72;102.98
75296;DHT22;64623;44.738;37.804;2023-05-02T03:03:34;21.72;102.70
75296;DHT22;64623;44.738;37.804;2023-05-02T03:04:40;21.73;102.41
75296;DHT22;64623;44.738;37.804;2023-05-02T03:05:46;21.73;102.37
75296;DHT22;64623;44.738;37.804;2023-05-02T03:06:50;21.75;102.29
75296;DHT22;64623;44.738;37.804;2023-05-02T03:07:53;21.74;102.22
75296;DHT22;64623;44.738;37.804;2023-05-02T03:08:57;21.75;102.21
75296;DHT22;64623;44.738;37.804;2023-05-02T03:10:04;21.76;102.33
75296;DHT22;64623;44.738;37.804;2023-05-02T03:11:09;21.75;102.48
75296;DHT22;64623;44.738;37.804;2023-05-02T03:12:12;21.76;102.37
75296;DHT22;64623;44.738;37.804;2023-05-02T03:13:17;21.77;102.36
75296;DHT22;64623;44.738;37.804;2023-05-02T03:14:20;21.78;102.53
75296;DHT22;64623;44.738;37.804;2023-05-02T03:16:45;21.79;102.63
75296;DHT22;64623;44.738;37.804;2023-05-02T03:17:50;21.78;102.63
75296;DHT22;64623;44.738;37.804;2023-05-02T03:18:52;21.79;102.70
75296;DHT22;64623;44.738;37.804;2023-05-02T03:19:56;21.79;102.83
75296;DHT22;64623;44.738;37.804;2023-05-02T03:21:00;21.79;102.85
75296;DHT22;64623;44.738;37.804;2023-05-02T03:22:04;21.79;102.81
75296;DHT22;64623;44.738;37.804;2023-05-02T03:23:09;21.79;102.86
75296;DHT22;64623;44.738;37.804;2023-05-02T03:24:13;21.81;102.74
75296;DHT22;64623;44.738;37.804;2023-05-02T03:25:19;21.81;102.91
75296;DHT22;64623;44.738;37.804;2023-05-02T03:26:32;21.80;102.71
75296;DHT22;64623;44.738;37.804;2023-05-02T03:27:35;21.82;102.92
75296;DHT22;64623;44.738;37.804;2023-05-02T03:28:41;21.81;102.99
75296;DHT22;64623;44.738;37.804;2023-05-02T03:29:53;21.82;102.87
75296;DHT22;64623;44.738;37.804;2023-05-02T03:30:55;21.82;102.80
75296;DHT22;64623;44.738;37.804;2023-05-02T03:31:58;21.83;102.80
75296;DHT22;64623;44.738;37.804;2023-05-02T03:33:01;21.82;102.73
75296;DHT22;64623;44.738;37.804;2023-05-02T03:34:06;21.83;102.80
75296;DHT22;64623;44.738;37.804;2023-05-02T03:35:10;21.82;102.88
75296;DHT22;64623;44.738;37.804;2023-05-02T03:36:17;21.82;102.84
75296;DHT22;64623;44.738;37.804;2023-05-02T03:37:21;21.82;102.76
75296;DHT22;64623;44.738;37.804;2023-05-02T03:38:24;21.82;102.92
75296;DHT22;64623;44.738;37.804;2023-05-02T03:39:27;21.81;103.79
75296;DHT22;64623;44.738;37.804;2023-05-02T03:40:30;21.81;103.77
75296;DHT22;64623;44.738;37.804;2023-05-02T03:41:32;21.82;103.60
75296;DHT22;64623;44.738;37.804;2023-05-02T03:42:41;21.83;103.72
75296;DHT22;64623;44.738;37.804;2023-05-02T03:43:55;21.83;103.99
75296;DHT22;64623;44.738;37.804;2023-05-02T03:45:00;21.87;104.12
75296;DHT22;64623;44.738;37.804;2023-05-02T03:46:06;21.87;104.43
75296;DHT22;64623;44.738;37.804;2023-05-02T03:47:12;21.88;103.95
75296;DHT22;64623;44.738;37.804;2023-05-02T03:48:17;21.89;103.91
75296;DHT22;64623;44.738;37.804;2023-05-02T03:49:20;21.89;104.04
75296;DHT22;64623;44.738;37.804;2023-05-02T03:50:26;21.88;103.75
75296;DHT22;64623;44.738;37.804;2023-05-02T03:51:30;21.90;103.36
75296;DHT22;64623;44.738;37.804;2023-05-02T03:52:35;21.91;103.56
75296;DHT22;64623;44.738;37.804;2023-05-02T03:53:37;21.91;103.52
75296;DHT22;64623;44.738;37.804;2023-05-02T03:54:41;21.90;103.78
75296;DHT22;64623;44.738;37.804;2023-05-02T03:55:45;21.90;103.54
75296;DHT22;64623;44.738;37.804;2023-05-02T03:56:55;21.90;103.40
75296;DHT22;64623;44.738;37.804;2023-05-02T03:58:04;21.90;103.17
75296;DHT22;64623;44.738;37.804;2023-05-02T03:59:06;21.91;103.08
75296;DHT22;64623;44.738;37.804;2023-05-02T04:00:10;21.90;103.21
75296;DHT22;64623;44.738;37.804;2023-05-02T04:01:16;21.89;103.16
75296;DHT22;64623;44.738;37.804;2023-05-02T04:02:22;21.89;103.47
75296;DHT22;64623;44.738;37.804;2023-05-02T04:03:25;21.89;103.60
75296;DHT22;64623;44.738;37.804;2023-05-02T04:04:31;21.91;103.76
75296;DHT22;64623;44.738;37.804;2023-05-02T04:05:34;21.91;104.22
75296;DHT22;64623;44.738;37.804;2023-05-02T04:06:37;21.94;104.47
75296;DHT22;64623;44.738;37.804;2023-05-02T04:07:42;21.96;104.37
75296;DHT22;64623;44.738;37.804;2023-05-02T04:08:45;21.97;104.05
75296;DHT22;64623;44.738;37.804;2023-05-02T04:09:48;21.97;104.92
75296;DHT22;64623;44.738;37.804;2023-05-02T04:10:50;22.01;104.69
75296;DHT22;64623;44.738;37.804;2023-05-02T04:11:54;22.02;104.52
75296;DHT22;64623;44.738;37.804;2023-05-02T04:12:57;22.03;104.73
75296;DHT22;64623;44.738;37.804;2023-05-02T04:14:00;22.06;104.48
75296;DHT22;64623;44.738;37.804;2023-05-02T04:15:03;22.07;104.49
75296;DHT22;64623;44.738;37.804;2023-05-02T04:16:08;22.08;104.90
75296;DHT22;64623;44.738;37.804;2023-05-02T04:17:13;22.09;105.42
75296;DHT22;64623;44.738;37.804;2023-05-02T04:18:22;22.10;104.27
75296;DHT22;64623;44.738;37.804;2023-05-02T04:19:26;22.11;104.45
75296;DHT22;64623;44.738;37.804;2023-05-02T04:20:29;22.12;105.02
75296;DHT22;64623;44.738;37.804;2023-05-02T04:21:35;22.13;104.18
75296;DHT22;64623;44.738;37.804;2023-05-02T04:22:40;22.13;103.82
75296;DHT22;64623;44.738;37.804;2023-05-02T04:23:43;22.13;103.86
75296;DHT22;64623;44.738;37.804;2023-05-02T04:24:46;22.13;103.87
75296;DHT22;64623;44.738;37.804;2023-05-02T04:25:53;22.17;103.70
75296;DHT22;64623;44.738;37.804;2023-05-02T04:26:59;22.14;103.78
75296;DHT22;64623;44.738;37.804;2023-05-02T04:28:02;22.17;103.41
75296;DHT22;64623;44.738;37.804;2023-05-02T04:29:06;22.16;103.24
75296;DHT22;64623;44.738;37.804;2023-05-02T04:30:10;22.19;103.15
75296;DHT22;64623;44.738;37.804;2023-05-02T04:31:13;22.18;103.25
75296;DHT22;64623;44.738;37.804;2023-05-02T04:32:18;22.19;102.59
75296;DHT22;64623;44.738;37.804;2023-05-02T04:33:22;22.18;102.72
75296;DHT22;64623;44.738;37.804;2023-05-02T04:34:27;22.19;102.57
75296;DHT22;64623;44.738;37.804;2023-05-02T04:35:30;22.18;102.55
75296;DHT22;64623;44.738;37.804;2023-05-02T04:36:33;22.20;102.68
75296;DHT22;64623;44.738;37.804;2023-05-02T04:37:36;22.21;102.54
75296;DHT22;64623;44.738;37.804;2023-05-02T04:38:39;22.20;102.49
75296;DHT22;64623;44.738;37.804;2023-05-02T04:39:42;22.21;102.45
75296;DHT22;64623;44.738;37.804;2023-05-02T04:40:51;22.21;102.36
75296;DHT22;64623;44.738;37.804;2023-05-02T04:42:00;22.21;102.28
75296;DHT22;64623;44.738;37.804;2023-05-02T04:43:06;22.21;102.15
75296;DHT22;64623;44.738;37.804;2023-05-02T04:44:23;22.22;102.16
75296;DHT22;64623;44.738;37.804;2023-05-02T04:45:26;22.21;102.17
75296;DHT22;64623;44.738;37.804;2023-05-02T04:46:29;22.21;102.01
75296;DHT22;64623;44.738;37.804;2023-05-02T04:47:32;22.24;102.00
75296;DHT22;64623;44.738;37.804;2023-05-02T04:48:35;22.23;101.96
75296;DHT22;64623;44.738;37.804;2023-05-02T04:49:37;22.24;101.92
75296;DHT22;64623;44.738;37.804;2023-05-02T04:50:44;22.23;101.85
75296;DHT22;64623;44.738;37.804;2023-05-02T04:51:47;22.23;101.89
75296;DHT22;64623;44.738;37.804;2023-05-02T04:52:50;22.24;101.77
75296;DHT22;64623;44.738;37.804;2023-05-02T04:53:54;22.24;101.70
75296;DHT22;64623;44.738;37.804;2023-05-02T04:54:57;22.25;101.66
75296;DHT22;64623;44.738;37.804;2023-05-02T04:55:59;22.24;101.60
75296;DHT22;64623;44.738;37.804;2023-05-02T04:57:03;22.25;101.59
75296;DHT22;64623;44.738;37.804;2023-05-02T04:58:11;22.25;101.59
75296;DHT22;64623;44.738;37.804;2023-05-02T04:59:15;22.25;101.48
75296;DHT22;64623;44.738;37.804;2023-05-02T05:00:18;22.26;101.44
75296;DHT22;64623;44.738;37.804;2023-05-02T05:01:21;22.26;101.39
75296;DHT22;64623;44.738;37.804;2023-05-02T05:02:26;22.25;101.25
75296;DHT22;64623;44.738;37.804;2023-05-02T05:03:30;22.28;101.33
75296;DHT22;64623;44.738;37.804;2023-05-02T05:04:35;22.26;101.18
75296;DHT22;64623;44.738;37.804;2023-05-02T05:05:38;22.28;101.25
75296;DHT22;64623;44.738;37.804;2023-05-02T05:06:46;22.27;101.12
75296;DHT22;64623;44.738;37.804;2023-05-02T05:07:51;22.27;101.17
75296;DHT22;64623;44.738;37.804;2023-05-02T05:08:56;22.27;100.97
75296;DHT22;64623;44.738;37.804;2023-05-02T05:09:59;22.29;101.15
75296;DHT22;64623;44.738;37.804;2023-05-02T05:11:06;22.28;100.99
75296;DHT22;64623;44.738;37.804;2023-05-02T05:12:09;22.28;100.91
75296;DHT22;64623;44.738;37.804;2023-05-02T05:13:12;22.29;100.82
75296;DHT22;64623;44.738;37.804;2023-05-02T05:14:17;22.29;100.77
75296;DHT22;64623;44.738;37.804;2023-05-02T05:15:24;22.29;100.77
75296;DHT22;64623;44.738;37.804;2023-05-02T05:16:32;22.32;100.53
75296;DHT22;64623;44.738;37.804;2023-05-02T05:17:36;22.29;100.69
75296;DHT22;64623;44.738;37.804;2023-05-02T05:18:39;22.29;100.61
75296;DHT22;64623;44.738;37.804;2023-05-02T05:19:45;22.31;100.52
75296;DHT22;64623;44.738;37.804;2023-05-02T05:20:48;22.29;100.34
75296;DHT22;64623;44.738;37.804;2023-05-02T05:21:50;22.31;100.36
75296;DHT22;64623;44.738;37.804;2023-05-02T05:22:54;22.31;100.53
75296;DHT22;64623;44.738;37.804;2023-05-02T05:23:59;22.32;100.34
75296;DHT22;64623;44.738;37.804;2023-05-02T05:25:03;22.32;100.32
75296;DHT22;64623;44.738;37.804;2023-05-02T05:26:10;22.33;100.24
75296;DHT22;64623;44.738;37.804;2023-05-02T05:27:16;22.32;100.22
75296;DHT22;64623;44.738;37.804;2023-05-02T05:28:18;22.32;100.21
75296;DHT22;64623;44.738;37.804;2023-05-02T05:29:21;22.32;100.19
75296;DHT22;64623;44.738;37.804;2023-05-02T05:30:24;22.32;100.20
75296;DHT22;64623;44.738;37.804;2023-05-02T05:31:28;22.34;100.03
75296;DHT22;64623;44.738;37.804;2023-05-02T05:32:33;22.34;100.02
75296;DHT22;64623;44.738;37.804;2023-05-02T05:33:37;22.34;100.04
75296;DHT22;64623;44.738;37.804;2023-05-02T05:34:42;22.34;99.90
75296;DHT22;64623;44.738;37.804;2023-05-02T05:35:45;22.35;99.92
75296;DHT22;64623;44.738;37.804;2023-05-02T05:36:47;22.34;99.96
75296;DHT22;64623;44.738;37.804;2023-05-02T05:37:51;22.35;99.77
75296;DHT22;64623;44.738;37.804;2023-05-02T05:38:55;22.35;99.86
75296;DHT22;64623;44.738;37.804;2023-05-02T05:39:58;22.35;99.72
75296;DHT22;64623;44.738;37.804;2023-05-02T05:41:02;22.35;99.71
75296;DHT22;64623;44.738;37.804;2023-05-02T05:42:05;22.35;99.66
75296;DHT22;64623;44.738;37.804;2023-05-02T05:43:08;22.35;99.60
75296;DHT22;64623;44.738;37.804;2023-05-02T05:44:12;22.35;99.48
75296;DHT22;64623;44.738;37.804;2023-05-02T05:45:15;22.36;99.55
75296;DHT22;64623;44.738;37.804;2023-05-02T05:46:21;22.36;99.50
75296;DHT22;64623;44.738;37.804;2023-05-02T05:47:23;22.35;99.54
75296;DHT22;64623;44.738;37.804;2023-05-02T05:48:27;22.35;99.48
75296;DHT22;64623;44.738;37.804;2023-05-02T05:49:30;22.35;99.40
75296;DHT22;64623;44.738;37.804;2023-05-02T05:50:34;22.36;99.31
75296;DHT22;64623;44.738;37.804;2023-05-02T05:51:36;22.37;99.38
75296;DHT22;64623;44.738;37.804;2023-05-02T05:52:39;22.36;99.32
75296;DHT22;64623;44.738;37.804;2023-05-02T05:53:42;22.37;99.42
75296;DHT22;64623;44.738;37.804;2023-05-02T05:54:47;22.37;99.22
75296;DHT22;64623;44.738;37.804;2023-05-02T05:55:49;22.37;99.28
75296;DHT22;64623;44.738;37.804;2023-05-02T05:56:53;22.36;99.36
75296;DHT22;64623;44.738;37.804;2023-05-02T05:57:56;22.37;99.44
75296;DHT22;64623;44.738;37.804;2023-05-02T05:58:59;22.37;99.36
75296;DHT22;64623;44.738;37.804;2023-05-02T06:00:02;22.37;99.41
75296;DHT22;64623;44.738;37.804;2023-05-02T06:01:16;22.38;99.51
75296;DHT22;64623;44.738;37.804;2023-05-02T06:02:19;22.38;99.40
75296;DHT22;64623;44.738;37.804;2023-05-02T06:03:22;22.37;99.44
75296;DHT22;64623;44.738;37.804;2023-05-02T06:04:25;22.39;99.40
75296;DHT22;64623;44.738;37.804;2023-05-02T06:05:28;22.38;99.22
75296;DHT22;64623;44.738;37.804;2023-05-02T06:06:31;22.38;99.42
75296;DHT22;64623;44.738;37.804;2023-05-02T06:07:34;22.38;99.43
75296;DHT22;64623;44.738;37.804;2023-05-02T06:08:37;22.38;99.48
75296;DHT22;64623;44.738;37.804;2023-05-02T06:09:40;22.39;99.45
75296;DHT22;64623;44.738;37.804;2023-05-02T06:10:43;22.38;99.32
75296;DHT22;64623;44.738;37.804;2023-05-02T06:11:46;22.40;99.47
75296;DHT22;64623;44.738;37.804;2023-05-02T06:12:49;22.39;99.30
75296;DHT22;64623;44.738;37.804;2023-05-02T06:13:55;22.39;99.32
75296;DHT22;64623;44.738;37.804;2023-05-02T06:14:58;22.39;99.08
75296;DHT22;64623;44.738;37.804;2023-05-02T06:16:01;22.40;99.13
75296;DHT22;64623;44.738;37.804;2023-05-02T06:17:04;22.39;99.21
75296;DHT22;64623;44.738;37.804;2023-05-02T06:18:08;22.39;99.19
75296;DHT22;64623;44.738;37.804;2023-05-02T06:19:11;22.39;99.09
75296;DHT22;64623;44.738;37.804;2023-05-02T06:20:13;22.40;99.23
75296;DHT22;64623;44.738;37.804;2023-05-02T06:21:17;22.41;99.27
75296;DHT22;64623;44.738;37.804;2023-05-02T06:22:20;22.40;99.30
75296;DHT22;64623;44.738;37.804;2023-05-02T06:23:23;22.40;99.28
75296;DHT22;64623;44.738;37.804;2023-05-02T06:24:26;22.40;99.13
75296;DHT22;64623;44.738;37.804;2023-05-02T06:25:28;22.40;99.28
75296;DHT22;64623;44.738;37.804;2023-05-02T06:26:31;22.41;99.32
75296;DHT22;64623;44.738;37.804;2023-05-02T06:27:34;22.40;99.30
75296;DHT22;64623;44.738;37.804;2023-05-02T06:28:37;22.41;99.32
75296;DHT22;64623;44.738;37.804;2023-05-02T06:29:40;22.40;99.26
75296;DHT22;64623;44.738;37.804;2023-05-02T06:30:42;22.41;99.14
75296;DHT22;64623;44.738;37.804;2023-05-02T06:31:45;22.40;99.09
75296;DHT22;64623;44.738;37.804;2023-05-02T06:32:48;22.41;99.23
75296;DHT22;64623;44.738;37.804;2023-05-02T06:33:50;22.41;99.19
75296;DHT22;64623;44.738;37.804;2023-05-02T06:34:54;22.40;99.13
75296;DHT22;64623;44.738;37.804;2023-05-02T06:35:57;22.41;99.12
75296;DHT22;64623;44.738;37.804;2023-05-02T06:37:01;22.41;99.13
75296;DHT22;64623;44.738;37.804;2023-05-02T06:38:04;22.42;99.22
75296;DHT22;64623;44.738;37.804;2023-05-02T06:39:07;22.41;99.27
75296;DHT22;64623;44.738;37.804;2023-05-02T06:40:10;22.41;99.20
75296;DHT22;64623;44.738;37.804;2023-05-02T06:41:13;22.41;99.12
75296;DHT22;64623;44.738;37.804;2023-05-02T06:42:19;22.41;99.25
75296;DHT22;64623;44.738;37.804;2023-05-02T06:43:22;22.41;99.26
75296;DHT22;64623;44.738;37.804;2023-05-02T06:44:25;22.41;99.20
75296;DHT22;64623;44.738;37.804;2023-05-02T06:45:27;22.40;99.24
75296;DHT22;64623;44.738;37.804;2023-05-02T06:46:30;22.41;99.11
75296;DHT22;64623;44.738;37.804;2023-05-02T06:47:33;22.41;99.02
75296;DHT22;64623;44.738;37.804;2023-05-02T06:48:36;22.41;99.26
75296;DHT22;64623;44.738;37.804;2023-05-02T06:49:39;22.40;99.19
75296;DHT22;64623;44.738;37.804;2023-05-02T06:50:42;22.42;99.16
75296;DHT22;64623;44.738;37.804;2023-05-02T06:51:44;22.42;99.26
75296;DHT22;64623;44.738;37.804;2023-05-02T06:52:47;22.42;99.32
75296;DHT22;64623;44.738;37.804;2023-05-02T06:53:50;22.42;99.19
75296;DHT22;64623;44.738;37.804;2023-05-02T06:54:53;22.42;99.16
75296;DHT22;64623;44.738;37.804;2023-05-02T06:55:56;22.42;99.13
75296;DHT22;64623;44.738;37.804;2023-05-02T06:56:59;22.42;99.17
75296;DHT22;64623;44.738;37.804;2023-05-02T06:58:02;22.42;99.29
75296;DHT22;64623;44.738;37.804;2023-05-02T06:59:05;22.43;99.19
75296;DHT22;64623;44.738;37.804;2023-05-02T07:00:08;22.43;99.10
75296;DHT22;64623;44.738;37.804;2023-05-02T07:01:11;22.43;99.24
75296;DHT22;64623;44.738;37.804;2023-05-02T07:02:14;22.43;99.19